sensor_id;sensor_type;location;lat;lon;timestamp;P1;durP1;ratioP1;P2;durP2;ratioP2
23388;SDS011;11867;51.198;11.966;2024-03-07T00:01:28;21.83;;;14.52;;
23388;SDS011;11867;51.198;11.966;2024-03-07T00:06:51;22.17;;;15.02;;
23388;SDS011;11867;51.198;11.966;2024-03-07T00:12:15;21.77;;;15.20;;
23388;SDS011;11867;51.198;11.966;2024-03-07T00:17:39;23.25;;;15.68;;
23388;SDS011;11867;51.198;11.966;2024-03-07T00:23:03;19.70;;;15.02;;
23388;SDS011;11867;51.198;11.966;2024-03-07T00:28:28;19.67;;;14.45;;
23388;SDS011;11867;51.198;11.966;2024-03-07T00:33:56;20.80;;;15.00;;
23388;SDS011;11867;51.198;11.966;2024-03-07T00:39:33;21.63;;;14.73;;
23388;SDS011;11867;51.198;11.966;2024-03-07T00:44:58;23.25;;;15.93;;
23388;SDS011;11867;51.198;11.966;2024-03-07T00:50:21;19.08;;;13.45;;
23388;SDS011;11867;51.198;11.966;2024-03-07T00:55:44;27.13;;;18.05;;
23388;SDS011;11867;51.198;11.966;2024-03-07T01:01:08;32.25;;;19.65;;
23388;SDS011;11867;51.198;11.966;2024-03-07T01:06:36;41.83;;;23.42;;
23388;SDS011;11867;51.198;11.966;2024-03-07T01:12:02;58.05;;;27.88;;
23388;SDS011;11867;51.198;11.966;2024-03-07T01:17:28;59.03;;;28.67;;
23388;SDS011;11867;51.198;11.966;2024-03-07T01:22:51;61.95;;;29.42;;
23388;SDS011;11867;51.198;11.966;2024-03-07T01:28:14;57.75;;;28.92;;
23388;SDS011;11867;51.198;11.966;2024-03-07T01:33:40;55.70;;;28.67;;
23388;SDS011;11867;51.198;11.966;2024-03-07T01:39:03;49.85;;;22.70;;
23388;SDS011;11867;51.198;11.966;2024-03-07T01:44:27;58.65;;;30.42;;
23388;SDS011;11867;51.198;11.966;2024-03-07T01:49:54;70.57;;;31.83;;
23388;SDS011;11867;51.198;11.966;2024-03-07T01:55:17;47.20;;;25.15;;
23388;SDS011;11867;51.198;11.966;2024-03-07T02:00:41;50.90;;;25.97;;
23388;SDS011;11867;51.198;11.966;2024-03-07T02:06:08;71.07;;;33.80;;
23388;SDS011;11867;51.198;11.966;2024-03-07T02:11:32;49.10;;;24.88;;
23388;SDS011;11867;51.198;11.966;2024-03-07T02:16:55;70.20;;;32.55;;
23388;SDS011;11867;51.198;11.966;2024-03-07T02:22:19;69.40;;;35.70;;
23388;SDS011;11867;51.198;11.966;2024-03-07T02:27:43;58.05;;;28.33;;
23388;SDS011;11867;51.198;11.966;2024-03-07T02:33:07;55.92;;;27.33;;
23388;SDS011;11867;51.198;11.966;2024-03-07T02:38:33;61.65;;;29.85;;
23388;SDS011;11867;51.198;11.966;2024-03-07T02:49:19;74.63;;;35.58;;
23388;SDS011;11867;51.198;11.966;2024-03-07T02:54:44;77.30;;;39.63;;
23388;SDS011;11867;51.198;11.966;2024-03-07T03:00:07;67.30;;;32.05;;
23388;SDS011;11867;51.198;11.966;2024-03-07T03:05:42;59.75;;;30.02;;
23388;SDS011;11867;51.198;11.966;2024-03-07T03:11:06;74.03;;;37.95;;
23388;SDS011;11867;51.198;11.966;2024-03-07T03:16:31;89.47;;;41.25;;
23388;SDS011;11867;51.198;11.966;2024-03-07T03:22:08;81.93;;;39.50;;
23388;SDS011;11867;51.198;11.966;2024-03-07T03:27:33;85.65;;;39.80;;
23388;SDS011;11867;51.198;11.966;2024-03-07T03:32:55;78.30;;;38.65;;
23388;SDS011;11867;51.198;11.966;2024-03-07T03:38:19;80.90;;;40.35;;
23388;SDS011;11867;51.198;11.966;2024-03-07T03:43:44;82.93;;;39.83;;
23388;SDS011;11867;51.198;11.966;2024-03-07T03:49:07;71.65;;;33.00;;
23388;SDS011;11867;51.198;11.966;2024-03-07T03:54:30;91.57;;;40.40;;
23388;SDS011;11867;51.198;11.966;2024-03-07T03:59:54;86.05;;;41.35;;
23388;SDS011;11867;51.198;11.966;2024-03-07T04:05:18;59.08;;;29.25;;
23388;SDS011;11867;51.198;11.966;2024-03-07T04:10:43;78.25;;;38.15;;
23388;SDS011;11867;51.198;11.966;2024-03-07T04:16:07;73.03;;;36.30;;
23388;SDS011;11867;51.198;11.966;2024-03-07T04:21:31;70.15;;;37.15;;
23388;SDS011;11867;51.198;11.966;2024-03-07T04:26:54;68.43;;;36.00;;
23388;SDS011;11867;51.198;11.966;2024-03-07T04:32:18;69.70;;;36.25;;
23388;SDS011;11867;51.198;11.966;2024-03-07T04:37:41;53.67;;;27.52;;
23388;SDS011;11867;51.198;11.966;2024-03-07T04:43:04;72.68;;;37.28;;
23388;SDS011;11867;51.198;11.966;2024-03-07T04:48:28;69.97;;;36.88;;
23388;SDS011;11867;51.198;11.966;2024-03-07T04:53:51;76.85;;;39.00;;
23388;SDS011;11867;51.198;11.966;2024-03-07T04:59:14;79.65;;;40.55;;
23388;SDS011;11867;51.198;11.966;2024-03-07T05:04:39;86.65;;;39.88;;
23388;SDS011;11867;51.198;11.966;2024-03-07T05:10:04;85.65;;;40.58;;
23388;SDS011;11867;51.198;11.966;2024-03-07T05:15:29;67.70;;;31.38;;
23388;SDS011;11867;51.198;11.966;2024-03-07T05:20:53;76.95;;;37.45;;
23388;SDS011;11867;51.198;11.966;2024-03-07T05:26:16;66.13;;;30.45;;
23388;SDS011;11867;51.198;11.966;2024-03-07T05:35:16;88.35;;;39.72;;
23388;SDS011;11867;51.198;11.966;2024-03-07T05:40:43;82.65;;;39.75;;
23388;SDS011;11867;51.198;11.966;2024-03-07T05:46:06;86.05;;;38.53;;
23388;SDS011;11867;51.198;11.966;2024-03-07T05:51:32;83.25;;;40.30;;
23388;SDS011;11867;51.198;11.966;2024-03-07T05:56:55;75.68;;;37.88;;
23388;SDS011;11867;51.198;11.966;2024-03-07T06:02:18;72.18;;;36.13;;
23388;SDS011;11867;51.198;11.966;2024-03-07T06:07:43;66.43;;;34.53;;
23388;SDS011;11867;51.198;11.966;2024-03-07T06:13:07;60.22;;;33.80;;
23388;SDS011;11867;51.198;11.966;2024-03-07T06:18:31;49.17;;;25.60;;
23388;SDS011;11867;51.198;11.966;2024-03-07T06:23:56;63.72;;;34.65;;
23388;SDS011;11867;51.198;11.966;2024-03-07T06:29:21;61.15;;;33.40;;
23388;SDS011;11867;51.198;11.966;2024-03-07T06:34:45;57.35;;;32.22;;
23388;SDS011;11867;51.198;11.966;2024-03-07T06:40:10;56.42;;;32.88;;
23388;SDS011;11867;51.198;11.966;2024-03-07T06:45:36;63.60;;;34.83;;
23388;SDS011;11867;51.198;11.966;2024-03-07T06:50:59;57.80;;;33.70;;
23388;SDS011;11867;51.198;11.966;2024-03-07T06:56:23;50.60;;;32.03;;
23388;SDS011;11867;51.198;11.966;2024-03-07T07:01:47;41.67;;;26.30;;
23388;SDS011;11867;51.198;11.966;2024-03-07T07:07:10;47.70;;;29.17;;
23388;SDS011;11867;51.198;11.966;2024-03-07T07:12:36;34.53;;;22.42;;
23388;SDS011;11867;51.198;11.966;2024-03-07T07:17:59;34.50;;;22.73;;
23388;SDS011;11867;51.198;11.966;2024-03-07T07:23:24;48.67;;;30.67;;
23388;SDS011;11867;51.198;11.966;2024-03-07T07:28:49;40.42;;;24.60;;
23388;SDS011;11867;51.198;11.966;2024-03-07T07:34:16;48.92;;;29.45;;
23388;SDS011;11867;51.198;11.966;2024-03-07T07:39:39;45.58;;;29.45;;
23388;SDS011;11867;51.198;11.966;2024-03-07T07:45:04;48.47;;;28.17;;
23388;SDS011;11867;51.198;11.966;2024-03-07T07:50:28;42.92;;;27.35;;
23388;SDS011;11867;51.198;11.966;2024-03-07T07:55:51;44.60;;;27.48;;
23388;SDS011;11867;51.198;11.966;2024-03-07T08:01:16;39.10;;;25.58;;
23388;SDS011;11867;51.198;11.966;2024-03-07T08:06:39;33.08;;;19.63;;
23388;SDS011;11867;51.198;11.966;2024-03-07T08:12:02;37.38;;;22.58;;
23388;SDS011;11867;51.198;11.966;2024-03-07T08:17:31;35.40;;;23.10;;
23388;SDS011;11867;51.198;11.966;2024-03-07T08:22:55;29.63;;;17.98;;
23388;SDS011;11867;51.198;11.966;2024-03-07T08:28:18;26.33;;;16.37;;
23388;SDS011;11867;51.198;11.966;2024-03-07T08:33:43;29.77;;;17.00;;
23388;SDS011;11867;51.198;11.966;2024-03-07T08:39:07;29.80;;;16.90;;
23388;SDS011;11867;51.198;11.966;2024-03-07T08:49:56;21.08;;;13.90;;
23388;SDS011;11867;51.198;11.966;2024-03-07T08:55:22;19.23;;;13.15;;
23388;SDS011;11867;51.198;11.966;2024-03-07T09:00:46;23.70;;;12.18;;
23388;SDS011;11867;51.198;11.966;2024-03-07T09:06:11;19.17;;;12.55;;
23388;SDS011;11867;51.198;11.966;2024-03-07T09:11:35;22.80;;;13.15;;
23388;SDS011;11867;51.198;11.966;2024-03-07T09:16:59;22.10;;;13.68;;
23388;SDS011;11867;51.198;11.966;2024-03-07T09:22:23;16.55;;;11.60;;
23388;SDS011;11867;51.198;11.966;2024-03-07T09:27:46;16.63;;;9.73;;
23388;SDS011;11867;51.198;11.966;2024-03-07T09:33:10;21.80;;;13.38;;
23388;SDS011;11867;51.198;11.966;2024-03-07T09:38:35;18.73;;;13.23;;
23388;SDS011;11867;51.198;11.966;2024-03-07T09:43:58;16.42;;;10.40;;
23388;SDS011;11867;51.198;11.966;2024-03-07T09:49:29;21.30;;;13.63;;
23388;SDS011;11867;51.198;11.966;2024-03-07T09:54:53;21.23;;;11.77;;
23388;SDS011;11867;51.198;11.966;2024-03-07T10:00:18;21.13;;;12.38;;
23388;SDS011;11867;51.198;11.966;2024-03-07T10:05:46;17.88;;;11.68;;
23388;SDS011;11867;51.198;11.966;2024-03-07T10:11:10;19.65;;;10.13;;
23388;SDS011;11867;51.198;11.966;2024-03-07T10:16:36;16.60;;;10.98;;
23388;SDS011;11867;51.198;11.966;2024-03-07T10:22:00;20.00;;;11.50;;
23388;SDS011;11867;51.198;11.966;2024-03-07T10:27:25;15.10;;;10.52;;
23388;SDS011;11867;51.198;11.966;2024-03-07T10:32:51;15.32;;;11.40;;
23388;SDS011;11867;51.198;11.966;2024-03-07T10:38:17;19.80;;;11.85;;
23388;SDS011;11867;51.198;11.966;2024-03-07T10:43:42;15.27;;;10.48;;
23388;SDS011;11867;51.198;11.966;2024-03-07T10:49:07;20.75;;;10.65;;
23388;SDS011;11867;51.198;11.966;2024-03-07T10:54:37;19.65;;;10.98;;
23388;SDS011;11867;51.198;11.966;2024-03-07T11:00:13;23.73;;;11.77;;
23388;SDS011;11867;51.198;11.966;2024-03-07T11:05:52;22.27;;;12.25;;
23388;SDS011;11867;51.198;11.966;2024-03-07T11:11:15;23.52;;;12.02;;
23388;SDS011;11867;51.198;11.966;2024-03-07T11:16:48;20.85;;;12.00;;
23388;SDS011;11867;51.198;11.966;2024-03-07T11:22:13;21.73;;;12.20;;
23388;SDS011;11867;51.198;11.966;2024-03-07T11:27:54;16.88;;;11.38;;
23388;SDS011;11867;51.198;11.966;2024-03-07T11:33:19;16.00;;;12.18;;
23388;SDS011;11867;51.198;11.966;2024-03-07T11:38:44;15.32;;;9.45;;
23388;SDS011;11867;51.198;11.966;2024-03-07T11:44:08;27.38;;;12.93;;
23388;SDS011;11867;51.198;11.966;2024-03-07T11:49:35;26.58;;;13.90;;
23388;SDS011;11867;51.198;11.966;2024-03-07T11:54:58;17.63;;;10.45;;
23388;SDS011;11867;51.198;11.966;2024-03-07T12:00:27;29.35;;;15.27;;
23388;SDS011;11867;51.198;11.966;2024-03-07T12:05:57;26.33;;;14.70;;
23388;SDS011;11867;51.198;11.966;2024-03-07T12:11:20;18.67;;;11.50;;
23388;SDS011;11867;51.198;11.966;2024-03-07T12:16:43;20.05;;;13.77;;
23388;SDS011;11867;51.198;11.966;2024-03-07T12:22:09;20.25;;;13.82;;
23388;SDS011;11867;51.198;11.966;2024-03-07T12:27:34;23.83;;;13.07;;
23388;SDS011;11867;51.198;11.966;2024-03-07T12:33:00;27.65;;;13.95;;
23388;SDS011;11867;51.198;11.966;2024-03-07T12:38:27;33.97;;;13.88;;
23388;SDS011;11867;51.198;11.966;2024-03-07T12:43:58;37.92;;;12.65;;
23388;SDS011;11867;51.198;11.966;2024-03-07T12:49:21;34.28;;;13.55;;
23388;SDS011;11867;51.198;11.966;2024-03-07T12:54:49;23.40;;;13.27;;
23388;SDS011;11867;51.198;11.966;2024-03-07T13:00:13;22.92;;;13.95;;
23388;SDS011;11867;51.198;11.966;2024-03-07T13:05:40;30.85;;;15.18;;
23388;SDS011;11867;51.198;11.966;2024-03-07T13:11:06;24.37;;;14.47;;
23388;SDS011;11867;51.198;11.966;2024-03-07T13:16:32;32.53;;;15.18;;
23388;SDS011;11867;51.198;11.966;2024-03-07T13:21:55;32.35;;;15.32;;
23388;SDS011;11867;51.198;11.966;2024-03-07T13:27:19;41.05;;;20.27;;
23388;SDS011;11867;51.198;11.966;2024-03-07T13:32:50;34.47;;;17.25;;
23388;SDS011;11867;51.198;11.966;2024-03-07T13:38:14;24.60;;;14.57;;
23388;SDS011;11867;51.198;11.966;2024-03-07T13:43:39;31.75;;;16.88;;
23388;SDS011;11867;51.198;11.966;2024-03-07T13:49:02;38.85;;;17.15;;
23388;SDS011;11867;51.198;11.966;2024-03-07T13:54:33;32.67;;;17.30;;
23388;SDS011;11867;51.198;11.966;2024-03-07T14:00:09;37.90;;;18.80;;
23388;SDS011;11867;51.198;11.966;2024-03-07T14:05:51;34.17;;;17.63;;
23388;SDS011;11867;51.198;11.966;2024-03-07T14:17:27;34.60;;;16.80;;
23388;SDS011;11867;51.198;11.966;2024-03-07T14:23:10;32.28;;;16.85;;
23388;SDS011;11867;51.198;11.966;2024-03-07T14:28:48;30.65;;;14.00;;
23388;SDS011;11867;51.198;11.966;2024-03-07T14:34:29;40.55;;;17.35;;
23388;SDS011;11867;51.198;11.966;2024-03-07T14:40:04;31.20;;;17.02;;
23388;SDS011;11867;51.198;11.966;2024-03-07T14:45:35;34.10;;;18.08;;
23388;SDS011;11867;51.198;11.966;2024-03-07T14:51:01;31.00;;;16.75;;
23388;SDS011;11867;51.198;11.966;2024-03-07T14:56:27;29.70;;;17.02;;
23388;SDS011;11867;51.198;11.966;2024-03-07T15:01:50;27.77;;;15.90;;
23388;SDS011;11867;51.198;11.966;2024-03-07T15:07:15;21.50;;;13.63;;
23388;SDS011;11867;51.198;11.966;2024-03-07T15:12:38;42.25;;;18.42;;
23388;SDS011;11867;51.198;11.966;2024-03-07T15:18:02;39.97;;;16.00;;
23388;SDS011;11867;51.198;11.966;2024-03-07T15:23:26;36.15;;;15.75;;
23388;SDS011;11867;51.198;11.966;2024-03-07T15:28:49;32.60;;;13.05;;
23388;SDS011;11867;51.198;11.966;2024-03-07T15:34:13;24.38;;;17.48;;
23388;SDS011;11867;51.198;11.966;2024-03-07T15:39:37;24.15;;;14.77;;
23388;SDS011;11867;51.198;11.966;2024-03-07T15:45:03;21.65;;;15.07;;
23388;SDS011;11867;51.198;11.966;2024-03-07T15:50:33;23.90;;;15.07;;
23388;SDS011;11867;51.198;11.966;2024-03-07T15:56:00;23.15;;;15.07;;
23388;SDS011;11867;51.198;11.966;2024-03-07T16:01:23;16.05;;;10.63;;
23388;SDS011;11867;51.198;11.966;2024-03-07T16:06:46;22.45;;;15.07;;
23388;SDS011;11867;51.198;11.966;2024-03-07T16:12:10;22.77;;;14.43;;
23388;SDS011;11867;51.198;11.966;2024-03-07T16:17:33;22.15;;;14.40;;
23388;SDS011;11867;51.198;11.966;2024-03-07T16:23:00;24.02;;;16.30;;
23388;SDS011;11867;51.198;11.966;2024-03-07T16:28:27;24.45;;;16.25;;
23388;SDS011;11867;51.198;11.966;2024-03-07T16:33:50;26.77;;;15.40;;
23388;SDS011;11867;51.198;11.966;2024-03-07T16:39:13;22.42;;;15.30;;
23388;SDS011;11867;51.198;11.966;2024-03-07T16:44:37;22.38;;;15.50;;
23388;SDS011;11867;51.198;11.966;2024-03-07T16:50:00;17.65;;;11.93;;
23388;SDS011;11867;51.198;11.966;2024-03-07T16:55:26;24.15;;;15.95;;
23388;SDS011;11867;51.198;11.966;2024-03-07T17:00:51;18.63;;;12.30;;
23388;SDS011;11867;51.198;11.966;2024-03-07T17:06:17;23.60;;;16.15;;
23388;SDS011;11867;51.198;11.966;2024-03-07T17:11:42;22.70;;;17.05;;
23388;SDS011;11867;51.198;11.966;2024-03-07T17:17:07;25.20;;;16.42;;
23388;SDS011;11867;51.198;11.966;2024-03-07T17:22:35;25.10;;;17.38;;
23388;SDS011;11867;51.198;11.966;2024-03-07T17:27:58;26.90;;;16.17;;
23388;SDS011;11867;51.198;11.966;2024-03-07T17:33:23;27.00;;;17.27;;
23388;SDS011;11867;51.198;11.966;2024-03-07T17:38:48;23.63;;;16.33;;
23388;SDS011;11867;51.198;11.966;2024-03-07T17:44:10;29.60;;;17.23;;
23388;SDS011;11867;51.198;11.966;2024-03-07T17:49:40;27.83;;;17.13;;
23388;SDS011;11867;51.198;11.966;2024-03-07T17:55:03;25.13;;;17.52;;
23388;SDS011;11867;51.198;11.966;2024-03-07T18:00:29;27.23;;;16.58;;
23388;SDS011;11867;51.198;11.966;2024-03-07T18:11:18;27.70;;;17.00;;
23388;SDS011;11867;51.198;11.966;2024-03-07T18:16:42;27.00;;;17.33;;
23388;SDS011;11867;51.198;11.966;2024-03-07T18:22:06;34.60;;;19.90;;
23388;SDS011;11867;51.198;11.966;2024-03-07T18:27:29;25.90;;;15.45;;
23388;SDS011;11867;51.198;11.966;2024-03-07T18:32:52;35.03;;;20.40;;
23388;SDS011;11867;51.198;11.966;2024-03-07T18:38:16;36.42;;;21.92;;
23388;SDS011;11867;51.198;11.966;2024-03-07T18:43:39;29.40;;;15.45;;
23388;SDS011;11867;51.198;11.966;2024-03-07T18:49:03;31.77;;;19.92;;
23388;SDS011;11867;51.198;11.966;2024-03-07T18:54:31;36.15;;;21.10;;
23388;SDS011;11867;51.198;11.966;2024-03-07T18:59:56;32.53;;;20.95;;
23388;SDS011;11867;51.198;11.966;2024-03-07T19:05:22;27.05;;;18.13;;
23388;SDS011;11867;51.198;11.966;2024-03-07T19:10:47;36.17;;;22.73;;
23388;SDS011;11867;51.198;11.966;2024-03-07T19:16:11;32.70;;;20.92;;
23388;SDS011;11867;51.198;11.966;2024-03-07T19:21:40;25.63;;;16.05;;
23388;SDS011;11867;51.198;11.966;2024-03-07T19:27:05;29.73;;;19.70;;
23388;SDS011;11867;51.198;11.966;2024-03-07T19:32:30;32.40;;;19.77;;
23388;SDS011;11867;51.198;11.966;2024-03-07T19:37:53;19.95;;;13.00;;
23388;SDS011;11867;51.198;11.966;2024-03-07T19:43:18;27.17;;;16.67;;
23388;SDS011;11867;51.198;11.966;2024-03-07T19:48:44;30.58;;;18.10;;
23388;SDS011;11867;51.198;11.966;2024-03-07T19:54:11;28.67;;;18.45;;
23388;SDS011;11867;51.198;11.966;2024-03-07T19:59:35;27.60;;;18.20;;
23388;SDS011;11867;51.198;11.966;2024-03-07T20:04:58;22.83;;;14.35;;
23388;SDS011;11867;51.198;11.966;2024-03-07T20:10:22;24.63;;;14.93;;
23388;SDS011;11867;51.198;11.966;2024-03-07T20:15:48;26.15;;;14.82;;
23388;SDS011;11867;51.198;11.966;2024-03-07T20:21:10;18.70;;;13.05;;
23388;SDS011;11867;51.198;11.966;2024-03-07T20:26:34;30.17;;;18.35;;
23388;SDS011;11867;51.198;11.966;2024-03-07T20:31:58;29.80;;;19.80;;
23388;SDS011;11867;51.198;11.966;2024-03-07T20:37:21;24.58;;;15.35;;
23388;SDS011;11867;51.198;11.966;2024-03-07T20:42:45;30.13;;;18.83;;
23388;SDS011;11867;51.198;11.966;2024-03-07T20:48:10;29.13;;;17.67;;
23388;SDS011;11867;51.198;11.966;2024-03-07T20:53:37;29.45;;;18.70;;
23388;SDS011;11867;51.198;11.966;2024-03-07T20:59:01;28.92;;;19.40;;
23388;SDS011;11867;51.198;11.966;2024-03-07T21:04:29;33.90;;;19.65;;
23388;SDS011;11867;51.198;11.966;2024-03-07T21:09:52;24.13;;;14.43;;
23388;SDS011;11867;51.198;11.966;2024-03-07T21:15:15;29.60;;;19.50;;
23388;SDS011;11867;51.198;11.966;2024-03-07T21:26:04;31.05;;;19.15;;
23388;SDS011;11867;51.198;11.966;2024-03-07T21:31:27;30.13;;;19.42;;
23388;SDS011;11867;51.198;11.966;2024-03-07T21:36:51;29.00;;;19.52;;
23388;SDS011;11867;51.198;11.966;2024-03-07T21:42:14;25.02;;;15.27;;
23388;SDS011;11867;51.198;11.966;2024-03-07T21:47:39;28.90;;;19.95;;
23388;SDS011;11867;51.198;11.966;2024-03-07T21:53:04;36.50;;;22.63;;
23388;SDS011;11867;51.198;11.966;2024-03-07T21:58:27;35.20;;;24.67;;
23388;SDS011;11867;51.198;11.966;2024-03-07T22:03:51;38.85;;;23.02;;
23388;SDS011;11867;51.198;11.966;2024-03-07T22:09:15;38.38;;;22.95;;
23388;SDS011;11867;51.198;11.966;2024-03-07T22:14:38;32.90;;;21.33;;
23388;SDS011;11867;51.198;11.966;2024-03-07T22:20:01;39.25;;;25.15;;
23388;SDS011;11867;51.198;11.966;2024-03-07T22:25:27;28.35;;;18.30;;
23388;SDS011;11867;51.198;11.966;2024-03-07T22:30:51;34.45;;;21.52;;
23388;SDS011;11867;51.198;11.966;2024-03-07T22:36:14;35.63;;;21.27;;
23388;SDS011;11867;51.198;11.966;2024-03-07T22:41:41;33.42;;;21.80;;
23388;SDS011;11867;51.198;11.966;2024-03-07T22:47:04;23.38;;;15.77;;
23388;SDS011;11867;51.198;11.966;2024-03-07T22:52:28;23.30;;;16.20;;
23388;SDS011;11867;51.198;11.966;2024-03-07T22:57:52;37.03;;;22.00;;
23388;SDS011;11867;51.198;11.966;2024-03-07T23:03:16;33.80;;;21.52;;
23388;SDS011;11867;51.198;11.966;2024-03-07T23:08:38;32.22;;;20.08;;
23388;SDS011;11867;51.198;11.966;2024-03-07T23:14:03;35.60;;;20.85;;
23388;SDS011;11867;51.198;11.966;2024-03-07T23:19:26;27.08;;;16.40;;
23388;SDS011;11867;51.198;11.966;2024-03-07T23:24:49;35.88;;;21.08;;
23388;SDS011;11867;51.198;11.966;2024-03-07T23:30:13;32.38;;;21.23;;
23388;SDS011;11867;51.198;11.966;2024-03-07T23:35:39;31.77;;;20.92;;
23388;SDS011;11867;51.198;11.966;2024-03-07T23:41:03;26.10;;;16.85;;
23388;SDS011;11867;51.198;11.966;2024-03-07T23:46:31;34.72;;;21.10;;
23388;SDS011;11867;51.198;11.966;2024-03-07T23:51:54;32.33;;;21.20;;
23388;SDS011;11867;51.198;11.966;2024-03-07T23:57:17;34.28;;;20.70;;
